sensor_id;sensor_type;location;lat;lon;timestamp;P1;durP1;ratioP1;P2;durP2;ratioP2
21420;SDS011;10871;50.144;8.428;2023-04-25T00:00:49;10.93;;;8.48;;
21420;SDS011;10871;50.144;8.428;2023-04-25T00:03:16;9.27;;;7.50;;
21420;SDS011;10871;50.144;8.428;2023-04-25T00:05:45;10.02;;;7.85;;
21420;SDS011;10871;50.144;8.428;2023-04-25T00:08:12;10.02;;;8.02;;
21420;SDS011;10871;50.144;8.428;2023-04-25T00:10:39;13.70;;;8.73;;
21420;SDS011;10871;50.144;8.428;2023-04-25T00:13:05;10.93;;;8.52;;
21420;SDS011;10871;50.144;8.428;2023-04-25T00:15:33;10.82;;;8.50;;
21420;SDS011;10871;50.144;8.428;2023-04-25T00:18:02;11.38;;;8.68;;
21420;SDS011;10871;50.144;8.428;2023-04-25T00:20:29;10.15;;;8.85;;
21420;SDS011;10871;50.144;8.428;2023-04-25T00:22:56;11.10;;;8.45;;
21420;SDS011;10871;50.144;8.428;2023-04-25T00:25:22;13.15;;;9.10;;
21420;SDS011;10871;50.144;8.428;2023-04-25T00:27:49;10.68;;;8.40;;
21420;SDS011;10871;50.144;8.428;2023-04-25T00:30:16;9.77;;;7.68;;
21420;SDS011;10871;50.144;8.428;2023-04-25T00:32:42;10.68;;;7.63;;
21420;SDS011;10871;50.144;8.428;2023-04-25T00:35:09;8.13;;;6.32;;
21420;SDS011;10871;50.144;8.428;2023-04-25T00:37:35;8.50;;;7.18;;
21420;SDS011;10871;50.144;8.428;2023-04-25T00:40:02;6.75;;;5.85;;
21420;SDS011;10871;50.144;8.428;2023-04-25T00:42:30;8.63;;;5.40;;
21420;SDS011;10871;50.144;8.428;2023-04-25T00:44:58;7.15;;;5.90;;
21420;SDS011;10871;50.144;8.428;2023-04-25T00:47:25;7.63;;;5.80;;
21420;SDS011;10871;50.144;8.428;2023-04-25T00:49:51;8.48;;;6.07;;
21420;SDS011;10871;50.144;8.428;2023-04-25T00:52:19;8.02;;;6.10;;
21420;SDS011;10871;50.144;8.428;2023-04-25T00:54:46;7.15;;;6.13;;
21420;SDS011;10871;50.144;8.428;2023-04-25T00:57:12;9.77;;;6.40;;
21420;SDS011;10871;50.144;8.428;2023-04-25T00:59:38;10.30;;;6.43;;
21420;SDS011;10871;50.144;8.428;2023-04-25T01:02:08;7.80;;;6.35;;
21420;SDS011;10871;50.144;8.428;2023-04-25T01:04:36;7.75;;;6.38;;
21420;SDS011;10871;50.144;8.428;2023-04-25T01:07:02;11.43;;;7.32;;
21420;SDS011;10871;50.144;8.428;2023-04-25T01:09:30;13.88;;;6.43;;
21420;SDS011;10871;50.144;8.428;2023-04-25T01:11:57;12.23;;;6.65;;
21420;SDS011;10871;50.144;8.428;2023-04-25T01:14:24;9.52;;;7.40;;
21420;SDS011;10871;50.144;8.428;2023-04-25T01:16:50;11.82;;;8.02;;
21420;SDS011;10871;50.144;8.428;2023-04-25T01:19:19;10.43;;;7.32;;
21420;SDS011;10871;50.144;8.428;2023-04-25T01:21:46;10.38;;;7.70;;
21420;SDS011;10871;50.144;8.428;2023-04-25T01:24:13;11.63;;;8.63;;
21420;SDS011;10871;50.144;8.428;2023-04-25T01:26:41;18.60;;;8.55;;
21420;SDS011;10871;50.144;8.428;2023-04-25T01:29:10;12.68;;;9.07;;
21420;SDS011;10871;50.144;8.428;2023-04-25T01:31:37;12.90;;;8.60;;
21420;SDS011;10871;50.144;8.428;2023-04-25T01:34:04;14.88;;;9.65;;
21420;SDS011;10871;50.144;8.428;2023-04-25T01:36:31;14.10;;;9.13;;
21420;SDS011;10871;50.144;8.428;2023-04-25T01:39:01;16.50;;;9.52;;
21420;SDS011;10871;50.144;8.428;2023-04-25T01:41:28;14.55;;;9.52;;
21420;SDS011;10871;50.144;8.428;2023-04-25T01:43:55;12.00;;;9.30;;
21420;SDS011;10871;50.144;8.428;2023-04-25T01:46:21;17.63;;;9.73;;
21420;SDS011;10871;50.144;8.428;2023-04-25T01:48:48;13.95;;;9.85;;
21420;SDS011;10871;50.144;8.428;2023-04-25T01:51:15;14.25;;;9.75;;
21420;SDS011;10871;50.144;8.428;2023-04-25T01:53:42;12.85;;;9.77;;
21420;SDS011;10871;50.144;8.428;2023-04-25T01:56:08;13.38;;;10.77;;
21420;SDS011;10871;50.144;8.428;2023-04-25T01:58:35;13.45;;;10.45;;
21420;SDS011;10871;50.144;8.428;2023-04-25T02:01:08;16.55;;;11.45;;
21420;SDS011;10871;50.144;8.428;2023-04-25T02:03:41;15.45;;;10.60;;
21420;SDS011;10871;50.144;8.428;2023-04-25T02:06:24;17.67;;;11.48;;
21420;SDS011;10871;50.144;8.428;2023-04-25T02:08:52;17.13;;;11.02;;
21420;SDS011;10871;50.144;8.428;2023-04-25T02:11:19;14.35;;;10.52;;
21420;SDS011;10871;50.144;8.428;2023-04-25T02:13:55;18.30;;;10.68;;
21420;SDS011;10871;50.144;8.428;2023-04-25T02:16:36;14.63;;;11.43;;
21420;SDS011;10871;50.144;8.428;2023-04-25T02:19:06;16.77;;;10.93;;
21420;SDS011;10871;50.144;8.428;2023-04-25T02:21:32;20.67;;;11.40;;
21420;SDS011;10871;50.144;8.428;2023-04-25T02:24:02;16.23;;;10.77;;
21420;SDS011;10871;50.144;8.428;2023-04-25T02:26:29;16.23;;;10.85;;
21420;SDS011;10871;50.144;8.428;2023-04-25T02:28:57;15.05;;;10.55;;
21420;SDS011;10871;50.144;8.428;2023-04-25T02:31:23;17.67;;;11.10;;
21420;SDS011;10871;50.144;8.428;2023-04-25T02:33:51;17.30;;;10.75;;
21420;SDS011;10871;50.144;8.428;2023-04-25T02:36:18;18.00;;;10.80;;
21420;SDS011;10871;50.144;8.428;2023-04-25T02:38:44;15.43;;;11.10;;
21420;SDS011;10871;50.144;8.428;2023-04-25T02:41:11;18.35;;;11.45;;
21420;SDS011;10871;50.144;8.428;2023-04-25T02:43:37;13.23;;;10.65;;
21420;SDS011;10871;50.144;8.428;2023-04-25T02:46:04;16.33;;;10.23;;
21420;SDS011;10871;50.144;8.428;2023-04-25T02:48:30;19.63;;;10.18;;
21420;SDS011;10871;50.144;8.428;2023-04-25T02:50:57;16.88;;;9.00;;
21420;SDS011;10871;50.144;8.428;2023-04-25T02:53:23;16.42;;;9.85;;
21420;SDS011;10871;50.144;8.428;2023-04-25T02:55:55;14.82;;;9.45;;
21420;SDS011;10871;50.144;8.428;2023-04-25T02:58:24;14.23;;;8.68;;
21420;SDS011;10871;50.144;8.428;2023-04-25T03:00:52;15.50;;;9.10;;
21420;SDS011;10871;50.144;8.428;2023-04-25T03:03:19;17.05;;;8.75;;
21420;SDS011;10871;50.144;8.428;2023-04-25T03:05:50;17.10;;;8.77;;
21420;SDS011;10871;50.144;8.428;2023-04-25T03:08:21;16.40;;;9.00;;
21420;SDS011;10871;50.144;8.428;2023-04-25T03:10:49;12.88;;;8.90;;
21420;SDS011;10871;50.144;8.428;2023-04-25T03:13:17;16.90;;;9.00;;
21420;SDS011;10871;50.144;8.428;2023-04-25T03:15:45;16.70;;;9.23;;
21420;SDS011;10871;50.144;8.428;2023-04-25T03:18:12;17.58;;;10.13;;
21420;SDS011;10871;50.144;8.428;2023-04-25T03:20:38;14.77;;;8.68;;
21420;SDS011;10871;50.144;8.428;2023-04-25T03:23:05;19.95;;;9.75;;
21420;SDS011;10871;50.144;8.428;2023-04-25T03:25:32;21.15;;;9.45;;
21420;SDS011;10871;50.144;8.428;2023-04-25T03:27:59;22.88;;;9.30;;
21420;SDS011;10871;50.144;8.428;2023-04-25T03:30:26;19.90;;;9.43;;
21420;SDS011;10871;50.144;8.428;2023-04-25T03:32:52;16.83;;;8.52;;
21420;SDS011;10871;50.144;8.428;2023-04-25T03:35:19;12.15;;;7.68;;
21420;SDS011;10871;50.144;8.428;2023-04-25T03:37:46;16.45;;;8.70;;
21420;SDS011;10871;50.144;8.428;2023-04-25T03:40:18;16.05;;;8.27;;
21420;SDS011;10871;50.144;8.428;2023-04-25T03:43:03;13.50;;;8.57;;
21420;SDS011;10871;50.144;8.428;2023-04-25T03:45:30;19.08;;;8.40;;
21420;SDS011;10871;50.144;8.428;2023-04-25T03:47:57;17.58;;;8.25;;
21420;SDS011;10871;50.144;8.428;2023-04-25T03:50:26;19.58;;;8.35;;
21420;SDS011;10871;50.144;8.428;2023-04-25T03:52:53;17.15;;;8.52;;
21420;SDS011;10871;50.144;8.428;2023-04-25T03:55:22;20.83;;;8.80;;
21420;SDS011;10871;50.144;8.428;2023-04-25T03:57:48;14.95;;;8.70;;
21420;SDS011;10871;50.144;8.428;2023-04-25T04:00:15;20.25;;;8.75;;
21420;SDS011;10871;50.144;8.428;2023-04-25T04:02:42;22.10;;;8.98;;
21420;SDS011;10871;50.144;8.428;2023-04-25T04:05:11;22.00;;;10.00;;
21420;SDS011;10871;50.144;8.428;2023-04-25T04:07:44;18.48;;;9.68;;
21420;SDS011;10871;50.144;8.428;2023-04-25T04:10:12;19.70;;;9.98;;
21420;SDS011;10871;50.144;8.428;2023-04-25T04:12:41;22.75;;;9.48;;
21420;SDS011;10871;50.144;8.428;2023-04-25T04:15:08;18.20;;;10.07;;
21420;SDS011;10871;50.144;8.428;2023-04-25T04:17:35;17.70;;;8.85;;
21420;SDS011;10871;50.144;8.428;2023-04-25T04:20:02;17.38;;;8.63;;
21420;SDS011;10871;50.144;8.428;2023-04-25T04:22:30;21.60;;;9.27;;
21420;SDS011;10871;50.144;8.428;2023-04-25T04:25:03;24.27;;;9.57;;
21420;SDS011;10871;50.144;8.428;2023-04-25T04:27:50;18.27;;;8.43;;
21420;SDS011;10871;50.144;8.428;2023-04-25T04:30:26;17.20;;;9.05;;
21420;SDS011;10871;50.144;8.428;2023-04-25T04:32:58;21.42;;;10.02;;
21420;SDS011;10871;50.144;8.428;2023-04-25T04:35:25;16.75;;;9.50;;
21420;SDS011;10871;50.144;8.428;2023-04-25T04:37:53;17.05;;;8.63;;
21420;SDS011;10871;50.144;8.428;2023-04-25T04:40:20;18.80;;;8.90;;
21420;SDS011;10871;50.144;8.428;2023-04-25T04:43:00;24.85;;;9.80;;
21420;SDS011;10871;50.144;8.428;2023-04-25T04:45:52;22.02;;;9.70;;
21420;SDS011;10871;50.144;8.428;2023-04-25T04:48:37;24.20;;;10.43;;
21420;SDS011;10871;50.144;8.428;2023-04-25T04:51:38;19.60;;;10.13;;
21420;SDS011;10871;50.144;8.428;2023-04-25T04:54:14;18.20;;;9.23;;
21420;SDS011;10871;50.144;8.428;2023-04-25T04:56:53;16.83;;;10.20;;
21420;SDS011;10871;50.144;8.428;2023-04-25T04:59:47;22.58;;;10.52;;
21420;SDS011;10871;50.144;8.428;2023-04-25T05:02:46;19.00;;;9.23;;
21420;SDS011;10871;50.144;8.428;2023-04-25T05:05:33;20.05;;;8.90;;
21420;SDS011;10871;50.144;8.428;2023-04-25T05:11:24;15.55;;;8.63;;
21420;SDS011;10871;50.144;8.428;2023-04-25T05:14:09;22.00;;;8.65;;
21420;SDS011;10871;50.144;8.428;2023-04-25T05:17:05;17.83;;;8.93;;
21420;SDS011;10871;50.144;8.428;2023-04-25T05:19:53;16.45;;;8.60;;
21420;SDS011;10871;50.144;8.428;2023-04-25T05:22:33;18.75;;;8.85;;
21420;SDS011;10871;50.144;8.428;2023-04-25T05:25:12;19.17;;;9.10;;
21420;SDS011;10871;50.144;8.428;2023-04-25T05:27:56;18.67;;;8.67;;
21420;SDS011;10871;50.144;8.428;2023-04-25T05:31:01;21.17;;;8.73;;
21420;SDS011;10871;50.144;8.428;2023-04-25T05:33:42;19.55;;;8.95;;
21420;SDS011;10871;50.144;8.428;2023-04-25T05:36:08;17.83;;;8.43;;
21420;SDS011;10871;50.144;8.428;2023-04-25T05:38:35;13.68;;;8.15;;
21420;SDS011;10871;50.144;8.428;2023-04-25T05:41:20;25.52;;;8.45;;
21420;SDS011;10871;50.144;8.428;2023-04-25T05:43:53;15.43;;;8.52;;
21420;SDS011;10871;50.144;8.428;2023-04-25T05:46:45;14.35;;;7.10;;
21420;SDS011;10871;50.144;8.428;2023-04-25T05:49:11;17.65;;;7.50;;
21420;SDS011;10871;50.144;8.428;2023-04-25T05:51:58;17.00;;;7.82;;
21420;SDS011;10871;50.144;8.428;2023-04-25T05:54:47;11.45;;;7.25;;
21420;SDS011;10871;50.144;8.428;2023-04-25T05:57:24;14.18;;;7.18;;
21420;SDS011;10871;50.144;8.428;2023-04-25T05:59:52;13.90;;;6.70;;
21420;SDS011;10871;50.144;8.428;2023-04-25T06:02:20;12.00;;;6.85;;
21420;SDS011;10871;50.144;8.428;2023-04-25T06:04:49;10.77;;;6.43;;
21420;SDS011;10871;50.144;8.428;2023-04-25T06:07:18;14.85;;;6.43;;
21420;SDS011;10871;50.144;8.428;2023-04-25T06:09:44;11.90;;;6.50;;
21420;SDS011;10871;50.144;8.428;2023-04-25T06:12:11;12.63;;;6.40;;
21420;SDS011;10871;50.144;8.428;2023-04-25T06:14:38;14.68;;;6.50;;
21420;SDS011;10871;50.144;8.428;2023-04-25T06:17:04;11.05;;;5.80;;
21420;SDS011;10871;50.144;8.428;2023-04-25T06:19:35;14.50;;;6.22;;
21420;SDS011;10871;50.144;8.428;2023-04-25T06:22:03;13.75;;;6.03;;
21420;SDS011;10871;50.144;8.428;2023-04-25T06:24:33;14.38;;;6.05;;
21420;SDS011;10871;50.144;8.428;2023-04-25T06:27:03;13.88;;;6.15;;
21420;SDS011;10871;50.144;8.428;2023-04-25T06:29:30;8.95;;;6.03;;
21420;SDS011;10871;50.144;8.428;2023-04-25T06:31:57;28.35;;;16.92;;
21420;SDS011;10871;50.144;8.428;2023-04-25T06:34:28;16.65;;;8.50;;
21420;SDS011;10871;50.144;8.428;2023-04-25T06:36:55;12.93;;;7.18;;
21420;SDS011;10871;50.144;8.428;2023-04-25T06:39:21;10.35;;;5.68;;
21420;SDS011;10871;50.144;8.428;2023-04-25T06:41:49;10.90;;;6.00;;
21420;SDS011;10871;50.144;8.428;2023-04-25T06:44:42;14.60;;;5.95;;
21420;SDS011;10871;50.144;8.428;2023-04-25T06:47:10;14.07;;;5.93;;
21420;SDS011;10871;50.144;8.428;2023-04-25T06:49:37;14.05;;;6.35;;
21420;SDS011;10871;50.144;8.428;2023-04-25T06:52:04;15.60;;;6.43;;
21420;SDS011;10871;50.144;8.428;2023-04-25T06:54:31;10.10;;;5.80;;
21420;SDS011;10871;50.144;8.428;2023-04-25T06:57:04;16.85;;;7.63;;
21420;SDS011;10871;50.144;8.428;2023-04-25T06:59:32;11.43;;;5.35;;
21420;SDS011;10871;50.144;8.428;2023-04-25T07:01:59;8.52;;;5.13;;
21420;SDS011;10871;50.144;8.428;2023-04-25T07:04:26;14.15;;;5.18;;
21420;SDS011;10871;50.144;8.428;2023-04-25T07:06:58;10.55;;;4.55;;
21420;SDS011;10871;50.144;8.428;2023-04-25T07:09:42;10.10;;;5.38;;
21420;SDS011;10871;50.144;8.428;2023-04-25T07:12:08;8.13;;;4.63;;
21420;SDS011;10871;50.144;8.428;2023-04-25T07:14:35;10.65;;;4.00;;
21420;SDS011;10871;50.144;8.428;2023-04-25T07:17:02;6.43;;;3.58;;
21420;SDS011;10871;50.144;8.428;2023-04-25T07:19:31;6.13;;;3.28;;
21420;SDS011;10871;50.144;8.428;2023-04-25T07:22:00;7.45;;;4.22;;
21420;SDS011;10871;50.144;8.428;2023-04-25T07:24:28;5.63;;;3.17;;
21420;SDS011;10871;50.144;8.428;2023-04-25T07:26:56;6.80;;;3.45;;
21420;SDS011;10871;50.144;8.428;2023-04-25T07:29:56;6.07;;;3.33;;
21420;SDS011;10871;50.144;8.428;2023-04-25T07:32:24;8.43;;;4.00;;
21420;SDS011;10871;50.144;8.428;2023-04-25T07:34:55;6.03;;;3.47;;
21420;SDS011;10871;50.144;8.428;2023-04-25T07:37:22;5.03;;;3.40;;
21420;SDS011;10871;50.144;8.428;2023-04-25T07:40:18;8.23;;;3.40;;
21420;SDS011;10871;50.144;8.428;2023-04-25T07:42:51;5.55;;;3.33;;
21420;SDS011;10871;50.144;8.428;2023-04-25T07:45:25;5.70;;;3.42;;
21420;SDS011;10871;50.144;8.428;2023-04-25T07:47:57;5.90;;;3.70;;
21420;SDS011;10871;50.144;8.428;2023-04-25T07:50:28;4.50;;;3.42;;
21420;SDS011;10871;50.144;8.428;2023-04-25T07:52:55;5.38;;;3.28;;
21420;SDS011;10871;50.144;8.428;2023-04-25T07:55:27;6.93;;;3.75;;
21420;SDS011;10871;50.144;8.428;2023-04-25T07:58:18;6.30;;;4.70;;
21420;SDS011;10871;50.144;8.428;2023-04-25T08:00:53;8.07;;;4.10;;
21420;SDS011;10871;50.144;8.428;2023-04-25T08:03:39;6.25;;;3.40;;
21420;SDS011;10871;50.144;8.428;2023-04-25T08:06:13;4.95;;;3.00;;
21420;SDS011;10871;50.144;8.428;2023-04-25T08:08:53;5.85;;;3.00;;
21420;SDS011;10871;50.144;8.428;2023-04-25T08:11:23;6.47;;;3.75;;
21420;SDS011;10871;50.144;8.428;2023-04-25T08:13:50;4.72;;;2.97;;
21420;SDS011;10871;50.144;8.428;2023-04-25T08:16:17;7.65;;;4.32;;
21420;SDS011;10871;50.144;8.428;2023-04-25T08:18:43;6.00;;;2.70;;
21420;SDS011;10871;50.144;8.428;2023-04-25T08:21:12;5.30;;;2.67;;
21420;SDS011;10871;50.144;8.428;2023-04-25T08:23:40;6.95;;;3.70;;
21420;SDS011;10871;50.144;8.428;2023-04-25T08:26:13;6.13;;;3.10;;
21420;SDS011;10871;50.144;8.428;2023-04-25T08:28:42;7.53;;;2.95;;
21420;SDS011;10871;50.144;8.428;2023-04-25T08:31:10;7.28;;;3.30;;
21420;SDS011;10871;50.144;8.428;2023-04-25T08:33:46;5.38;;;3.35;;
21420;SDS011;10871;50.144;8.428;2023-04-25T08:36:21;8.00;;;4.68;;
21420;SDS011;10871;50.144;8.428;2023-04-25T08:39:13;7.75;;;4.30;;
21420;SDS011;10871;50.144;8.428;2023-04-25T08:41:49;7.35;;;3.90;;
21420;SDS011;10871;50.144;8.428;2023-04-25T08:44:16;7.00;;;4.43;;
21420;SDS011;10871;50.144;8.428;2023-04-25T08:46:43;8.48;;;3.90;;
21420;SDS011;10871;50.144;8.428;2023-04-25T08:49:23;5.57;;;4.35;;
21420;SDS011;10871;50.144;8.428;2023-04-25T08:51:53;6.90;;;4.05;;
21420;SDS011;10871;50.144;8.428;2023-04-25T08:54:22;6.75;;;3.90;;
21420;SDS011;10871;50.144;8.428;2023-04-25T08:57:02;5.82;;;3.90;;
21420;SDS011;10871;50.144;8.428;2023-04-25T08:59:31;5.85;;;4.15;;
21420;SDS011;10871;50.144;8.428;2023-04-25T09:02:00;6.95;;;4.40;;
21420;SDS011;10871;50.144;8.428;2023-04-25T09:04:30;7.72;;;4.60;;
21420;SDS011;10871;50.144;8.428;2023-04-25T09:06:57;7.38;;;4.63;;
21420;SDS011;10871;50.144;8.428;2023-04-25T09:09:25;6.82;;;4.63;;
21420;SDS011;10871;50.144;8.428;2023-04-25T09:11:51;6.97;;;4.32;;
21420;SDS011;10871;50.144;8.428;2023-04-25T09:14:20;5.88;;;4.18;;
21420;SDS011;10871;50.144;8.428;2023-04-25T09:16:59;8.93;;;7.93;;
21420;SDS011;10871;50.144;8.428;2023-04-25T09:19:39;5.82;;;4.60;;
21420;SDS011;10871;50.144;8.428;2023-04-25T09:22:16;6.93;;;4.90;;
21420;SDS011;10871;50.144;8.428;2023-04-25T09:24:46;10.68;;;4.93;;
21420;SDS011;10871;50.144;8.428;2023-04-25T09:27:19;6.00;;;4.28;;
21420;SDS011;10871;50.144;8.428;2023-04-25T09:34:47;6.25;;;4.60;;
21420;SDS011;10871;50.144;8.428;2023-04-25T09:37:19;8.25;;;4.57;;
21420;SDS011;10871;50.144;8.428;2023-04-25T09:40:05;5.60;;;3.97;;
21420;SDS011;10871;50.144;8.428;2023-04-25T09:42:45;7.35;;;6.25;;
21420;SDS011;10871;50.144;8.428;2023-04-25T09:45:12;5.57;;;3.95;;
21420;SDS011;10871;50.144;8.428;2023-04-25T09:47:40;6.15;;;4.13;;
21420;SDS011;10871;50.144;8.428;2023-04-25T09:50:14;6.68;;;4.30;;
21420;SDS011;10871;50.144;8.428;2023-04-25T09:52:45;7.40;;;5.38;;
21420;SDS011;10871;50.144;8.428;2023-04-25T09:55:16;7.60;;;5.18;;
21420;SDS011;10871;50.144;8.428;2023-04-25T09:57:44;6.78;;;4.35;;
21420;SDS011;10871;50.144;8.428;2023-04-25T10:00:15;7.80;;;5.00;;
21420;SDS011;10871;50.144;8.428;2023-04-25T10:02:42;8.88;;;4.60;;
21420;SDS011;10871;50.144;8.428;2023-04-25T10:05:26;8.93;;;4.03;;
21420;SDS011;10871;50.144;8.428;2023-04-25T10:07:54;8.20;;;4.60;;
21420;SDS011;10871;50.144;8.428;2023-04-25T10:10:23;11.07;;;4.85;;
21420;SDS011;10871;50.144;8.428;2023-04-25T10:12:52;9.90;;;5.80;;
21420;SDS011;10871;50.144;8.428;2023-04-25T10:15:19;8.63;;;4.82;;
21420;SDS011;10871;50.144;8.428;2023-04-25T10:17:49;9.85;;;4.15;;
21420;SDS011;10871;50.144;8.428;2023-04-25T10:20:17;7.45;;;4.13;;
21420;SDS011;10871;50.144;8.428;2023-04-25T10:22:44;7.53;;;4.00;;
21420;SDS011;10871;50.144;8.428;2023-04-25T10:25:13;7.15;;;3.85;;
21420;SDS011;10871;50.144;8.428;2023-04-25T10:27:40;7.50;;;3.95;;
21420;SDS011;10871;50.144;8.428;2023-04-25T10:30:08;6.80;;;4.20;;
21420;SDS011;10871;50.144;8.428;2023-04-25T10:32:38;8.45;;;4.45;;
21420;SDS011;10871;50.144;8.428;2023-04-25T10:35:15;9.68;;;4.22;;
21420;SDS011;10871;50.144;8.428;2023-04-25T10:40:29;6.25;;;3.83;;
21420;SDS011;10871;50.144;8.428;2023-04-25T10:42:56;7.03;;;4.47;;
21420;SDS011;10871;50.144;8.428;2023-04-25T10:45:52;8.05;;;4.38;;
21420;SDS011;10871;50.144;8.428;2023-04-25T10:48:25;8.32;;;4.45;;
21420;SDS011;10871;50.144;8.428;2023-04-25T10:51:11;7.15;;;4.50;;
21420;SDS011;10871;50.144;8.428;2023-04-25T10:53:37;9.77;;;4.72;;
21420;SDS011;10871;50.144;8.428;2023-04-25T10:56:11;6.65;;;4.45;;
21420;SDS011;10871;50.144;8.428;2023-04-25T10:58:43;9.27;;;4.82;;
21420;SDS011;10871;50.144;8.428;2023-04-25T11:01:11;9.70;;;4.93;;
21420;SDS011;10871;50.144;8.428;2023-04-25T11:03:43;12.15;;;4.78;;
21420;SDS011;10871;50.144;8.428;2023-04-25T11:06:23;10.05;;;4.88;;
21420;SDS011;10871;50.144;8.428;2023-04-25T11:08:54;8.52;;;4.10;;
21420;SDS011;10871;50.144;8.428;2023-04-25T11:11:22;10.68;;;4.22;;
21420;SDS011;10871;50.144;8.428;2023-04-25T11:13:49;8.90;;;4.13;;
21420;SDS011;10871;50.144;8.428;2023-04-25T11:16:16;10.75;;;3.83;;
21420;SDS011;10871;50.144;8.428;2023-04-25T11:18:52;11.90;;;4.18;;
21420;SDS011;10871;50.144;8.428;2023-04-25T11:21:19;7.72;;;3.58;;
21420;SDS011;10871;50.144;8.428;2023-04-25T11:23:46;8.35;;;3.97;;
21420;SDS011;10871;50.144;8.428;2023-04-25T11:26:13;7.32;;;3.22;;
21420;SDS011;10871;50.144;8.428;2023-04-25T11:28:39;10.75;;;4.25;;
21420;SDS011;10871;50.144;8.428;2023-04-25T11:31:05;6.85;;;3.55;;
21420;SDS011;10871;50.144;8.428;2023-04-25T11:33:34;12.18;;;3.67;;
21420;SDS011;10871;50.144;8.428;2023-04-25T11:36:00;8.27;;;3.45;;
21420;SDS011;10871;50.144;8.428;2023-04-25T11:38:27;10.02;;;3.60;;
21420;SDS011;10871;50.144;8.428;2023-04-25T11:40:54;8.30;;;3.80;;
21420;SDS011;10871;50.144;8.428;2023-04-25T11:43:21;10.38;;;3.92;;
21420;SDS011;10871;50.144;8.428;2023-04-25T11:45:49;7.60;;;3.55;;
21420;SDS011;10871;50.144;8.428;2023-04-25T11:48:16;6.93;;;3.70;;
21420;SDS011;10871;50.144;8.428;2023-04-25T11:50:44;6.78;;;3.40;;
21420;SDS011;10871;50.144;8.428;2023-04-25T11:53:11;8.75;;;3.15;;
21420;SDS011;10871;50.144;8.428;2023-04-25T11:55:38;8.25;;;3.40;;
21420;SDS011;10871;50.144;8.428;2023-04-25T11:58:06;10.65;;;3.53;;
21420;SDS011;10871;50.144;8.428;2023-04-25T12:00:34;8.15;;;3.45;;
21420;SDS011;10871;50.144;8.428;2023-04-25T12:03:01;8.63;;;3.50;;
21420;SDS011;10871;50.144;8.428;2023-04-25T12:05:30;7.10;;;2.85;;
21420;SDS011;10871;50.144;8.428;2023-04-25T12:08:13;8.70;;;3.30;;
21420;SDS011;10871;50.144;8.428;2023-04-25T12:10:42;8.32;;;3.47;;
21420;SDS011;10871;50.144;8.428;2023-04-25T12:13:25;9.35;;;3.83;;
21420;SDS011;10871;50.144;8.428;2023-04-25T12:15:56;7.65;;;3.60;;
21420;SDS011;10871;50.144;8.428;2023-04-25T12:18:23;8.45;;;3.42;;
21420;SDS011;10871;50.144;8.428;2023-04-25T12:20:51;9.55;;;3.92;;
21420;SDS011;10871;50.144;8.428;2023-04-25T12:23:26;8.75;;;4.53;;
21420;SDS011;10871;50.144;8.428;2023-04-25T12:25:53;12.50;;;3.40;;
21420;SDS011;10871;50.144;8.428;2023-04-25T12:28:22;9.63;;;3.70;;
21420;SDS011;10871;50.144;8.428;2023-04-25T12:33:24;10.73;;;3.05;;
21420;SDS011;10871;50.144;8.428;2023-04-25T12:35:52;8.00;;;3.17;;
21420;SDS011;10871;50.144;8.428;2023-04-25T12:38:25;10.02;;;3.38;;
21420;SDS011;10871;50.144;8.428;2023-04-25T12:40:52;6.28;;;3.38;;
21420;SDS011;10871;50.144;8.428;2023-04-25T12:43:20;11.95;;;3.50;;
21420;SDS011;10871;50.144;8.428;2023-04-25T12:45:50;9.02;;;3.70;;
21420;SDS011;10871;50.144;8.428;2023-04-25T12:48:18;7.30;;;3.50;;
21420;SDS011;10871;50.144;8.428;2023-04-25T12:50:45;8.95;;;3.17;;
21420;SDS011;10871;50.144;8.428;2023-04-25T12:53:15;10.60;;;3.53;;
21420;SDS011;10871;50.144;8.428;2023-04-25T12:55:42;10.15;;;3.97;;
21420;SDS011;10871;50.144;8.428;2023-04-25T12:58:09;5.65;;;3.20;;
21420;SDS011;10871;50.144;8.428;2023-04-25T13:00:36;8.27;;;3.45;;
21420;SDS011;10871;50.144;8.428;2023-04-25T13:03:02;8.13;;;3.53;;
21420;SDS011;10871;50.144;8.428;2023-04-25T13:05:31;9.18;;;3.58;;
21420;SDS011;10871;50.144;8.428;2023-04-25T13:07:59;10.75;;;4.22;;
21420;SDS011;10871;50.144;8.428;2023-04-25T13:10:27;9.88;;;4.15;;
21420;SDS011;10871;50.144;8.428;2023-04-25T13:12:54;7.28;;;3.95;;
21420;SDS011;10871;50.144;8.428;2023-04-25T13:15:21;8.55;;;3.90;;
21420;SDS011;10871;50.144;8.428;2023-04-25T13:17:49;9.50;;;4.15;;
21420;SDS011;10871;50.144;8.428;2023-04-25T13:20:15;17.27;;;10.50;;
21420;SDS011;10871;50.144;8.428;2023-04-25T13:22:42;8.32;;;3.90;;
21420;SDS011;10871;50.144;8.428;2023-04-25T13:25:09;8.40;;;4.60;;
21420;SDS011;10871;50.144;8.428;2023-04-25T13:27:37;9.05;;;4.20;;
21420;SDS011;10871;50.144;8.428;2023-04-25T13:30:04;8.75;;;3.85;;
21420;SDS011;10871;50.144;8.428;2023-04-25T13:32:34;8.55;;;4.00;;
21420;SDS011;10871;50.144;8.428;2023-04-25T13:35:08;10.35;;;3.67;;
21420;SDS011;10871;50.144;8.428;2023-04-25T13:37:36;8.80;;;4.05;;
21420;SDS011;10871;50.144;8.428;2023-04-25T13:40:07;12.15;;;4.25;;
21420;SDS011;10871;50.144;8.428;2023-04-25T13:42:36;5.63;;;3.63;;
21420;SDS011;10871;50.144;8.428;2023-04-25T13:45:03;7.15;;;3.70;;
21420;SDS011;10871;50.144;8.428;2023-04-25T13:47:30;6.30;;;3.00;;
21420;SDS011;10871;50.144;8.428;2023-04-25T13:49:57;7.82;;;3.80;;
21420;SDS011;10871;50.144;8.428;2023-04-25T13:52:24;6.90;;;3.00;;
21420;SDS011;10871;50.144;8.428;2023-04-25T13:54:50;8.23;;;3.30;;
21420;SDS011;10871;50.144;8.428;2023-04-25T13:57:17;6.18;;;2.80;;
21420;SDS011;10871;50.144;8.428;2023-04-25T13:59:44;6.13;;;2.92;;
21420;SDS011;10871;50.144;8.428;2023-04-25T14:02:10;7.78;;;2.92;;
21420;SDS011;10871;50.144;8.428;2023-04-25T14:04:37;8.05;;;2.72;;
21420;SDS011;10871;50.144;8.428;2023-04-25T14:07:04;6.53;;;2.78;;
21420;SDS011;10871;50.144;8.428;2023-04-25T14:09:31;7.25;;;3.13;;
21420;SDS011;10871;50.144;8.428;2023-04-25T14:11:58;7.80;;;2.65;;
21420;SDS011;10871;50.144;8.428;2023-04-25T14:14:24;7.40;;;2.70;;
21420;SDS011;10871;50.144;8.428;2023-04-25T14:16:53;6.47;;;2.83;;
21420;SDS011;10871;50.144;8.428;2023-04-25T14:19:21;8.20;;;2.95;;
21420;SDS011;10871;50.144;8.428;2023-04-25T14:21:48;6.90;;;2.85;;
21420;SDS011;10871;50.144;8.428;2023-04-25T14:24:16;9.10;;;3.58;;
21420;SDS011;10871;50.144;8.428;2023-04-25T14:26:42;8.32;;;2.90;;
21420;SDS011;10871;50.144;8.428;2023-04-25T14:29:10;7.78;;;2.80;;
21420;SDS011;10871;50.144;8.428;2023-04-25T14:31:39;4.70;;;2.75;;
21420;SDS011;10871;50.144;8.428;2023-04-25T14:34:06;7.35;;;2.35;;
21420;SDS011;10871;50.144;8.428;2023-04-25T14:36:33;8.00;;;2.83;;
21420;SDS011;10871;50.144;8.428;2023-04-25T14:39:00;8.70;;;5.15;;
21420;SDS011;10871;50.144;8.428;2023-04-25T14:41:27;7.60;;;3.10;;
21420;SDS011;10871;50.144;8.428;2023-04-25T14:43:53;5.05;;;3.75;;
21420;SDS011;10871;50.144;8.428;2023-04-25T14:46:20;7.18;;;3.05;;
21420;SDS011;10871;50.144;8.428;2023-04-25T14:48:47;4.88;;;2.38;;
21420;SDS011;10871;50.144;8.428;2023-04-25T14:51:13;6.57;;;3.13;;
21420;SDS011;10871;50.144;8.428;2023-04-25T14:53:41;5.43;;;2.80;;
21420;SDS011;10871;50.144;8.428;2023-04-25T14:56:08;9.73;;;3.20;;
21420;SDS011;10871;50.144;8.428;2023-04-25T14:58:35;7.20;;;2.83;;
21420;SDS011;10871;50.144;8.428;2023-04-25T15:01:01;6.57;;;3.00;;
21420;SDS011;10871;50.144;8.428;2023-04-25T15:03:28;7.88;;;4.30;;
21420;SDS011;10871;50.144;8.428;2023-04-25T15:05:56;5.95;;;2.65;;
21420;SDS011;10871;50.144;8.428;2023-04-25T15:08:23;9.45;;;4.55;;
21420;SDS011;10871;50.144;8.428;2023-04-25T15:10:50;8.98;;;3.00;;
21420;SDS011;10871;50.144;8.428;2023-04-25T15:13:18;7.45;;;3.30;;